sensor_id;sensor_type;location;lat;lon;timestamp;pressure;altitude;pressure_sealevel;temperature;humidity
16595;BME280;8410;52.532;13.336;2023-05-09T00:00:35;101960.09;;;13.64;57.04
16595;BME280;8410;52.532;13.336;2023-05-09T00:03:03;101960.25;;;13.73;57.02
16595;BME280;8410;52.532;13.336;2023-05-09T00:05:31;101962.91;;;13.32;57.90
16595;BME280;8410;52.532;13.336;2023-05-09T00:08:00;101965.78;;;13.07;59.84
16595;BME280;8410;52.532;13.336;2023-05-09T00:10:28;101956.94;;;13.36;58.52
16595;BME280;8410;52.532;13.336;2023-05-09T00:12:56;101963.34;;;13.13;58.45
16595;BME280;8410;52.532;13.336;2023-05-09T00:15:24;101964.31;;;13.59;57.35
16595;BME280;8410;52.532;13.336;2023-05-09T00:17:52;101963.50;;;13.20;58.86
16595;BME280;8410;52.532;13.336;2023-05-09T00:20:19;101966.56;;;13.04;59.28
16595;BME280;8410;52.532;13.336;2023-05-09T00:22:47;101960.66;;;13.48;57.77
16595;BME280;8410;52.532;13.336;2023-05-09T00:25:16;101961.19;;;13.31;59.47
16595;BME280;8410;52.532;13.336;2023-05-09T00:27:44;101959.69;;;13.42;58.16
16595;BME280;8410;52.532;13.336;2023-05-09T00:30:11;101961.66;;;13.56;57.58
16595;BME280;8410;52.532;13.336;2023-05-09T00:32:39;101968.56;;;13.57;57.25
16595;BME280;8410;52.532;13.336;2023-05-09T00:35:07;101964.25;;;13.57;58.25
16595;BME280;8410;52.532;13.336;2023-05-09T00:37:35;101975.72;;;13.26;58.09
16595;BME280;8410;52.532;13.336;2023-05-09T00:40:03;101977.94;;;13.11;58.98
16595;BME280;8410;52.532;13.336;2023-05-09T00:42:33;101971.22;;;13.19;58.69
16595;BME280;8410;52.532;13.336;2023-05-09T00:45:01;101969.81;;;13.33;57.78
16595;BME280;8410;52.532;13.336;2023-05-09T00:47:28;101972.97;;;12.82;59.66
16595;BME280;8410;52.532;13.336;2023-05-09T00:49:56;101968.75;;;13.25;58.00
16595;BME280;8410;52.532;13.336;2023-05-09T00:52:25;101967.59;;;13.11;58.12
16595;BME280;8410;52.532;13.336;2023-05-09T00:54:53;101959.63;;;13.01;59.18
16595;BME280;8410;52.532;13.336;2023-05-09T00:57:21;101957.81;;;12.97;59.63
16595;BME280;8410;52.532;13.336;2023-05-09T00:59:50;101951.66;;;13.29;57.99
16595;BME280;8410;52.532;13.336;2023-05-09T01:02:18;101956.69;;;12.85;58.04
16595;BME280;8410;52.532;13.336;2023-05-09T01:04:46;101948.25;;;12.93;58.19
16595;BME280;8410;52.532;13.336;2023-05-09T01:07:18;101943.75;;;13.24;57.13
16595;BME280;8410;52.532;13.336;2023-05-09T01:09:55;101941.59;;;13.44;57.54
16595;BME280;8410;52.532;13.336;2023-05-09T01:12:31;101939.75;;;13.38;57.08
16595;BME280;8410;52.532;13.336;2023-05-09T01:15:07;101939.94;;;13.48;57.52
16595;BME280;8410;52.532;13.336;2023-05-09T01:17:45;101932.44;;;12.78;57.87
16595;BME280;8410;52.532;13.336;2023-05-09T01:20:22;101940.56;;;13.36;56.90
16595;BME280;8410;52.532;13.336;2023-05-09T01:23:01;101935.75;;;13.53;56.69
16595;BME280;8410;52.532;13.336;2023-05-09T01:25:44;101946.63;;;12.98;57.07
16595;BME280;8410;52.532;13.336;2023-05-09T01:28:18;101948.19;;;12.90;58.19
16595;BME280;8410;52.532;13.336;2023-05-09T01:30:54;101943.88;;;12.91;57.13
16595;BME280;8410;52.532;13.336;2023-05-09T01:33:23;101934.72;;;13.44;56.88
16595;BME280;8410;52.532;13.336;2023-05-09T01:35:57;101935.31;;;12.92;56.55
16595;BME280;8410;52.532;13.336;2023-05-09T01:38:29;101925.56;;;12.80;58.65
16595;BME280;8410;52.532;13.336;2023-05-09T01:40:58;101926.66;;;13.29;57.45
16595;BME280;8410;52.532;13.336;2023-05-09T01:43:27;101926.28;;;13.55;56.29
16595;BME280;8410;52.532;13.336;2023-05-09T01:45:58;101927.38;;;13.25;56.26
16595;BME280;8410;52.532;13.336;2023-05-09T01:48:27;101934.78;;;12.69;57.72
16595;BME280;8410;52.532;13.336;2023-05-09T01:50:57;101925.88;;;12.94;57.64
16595;BME280;8410;52.532;13.336;2023-05-09T01:53:26;101923.34;;;12.97;56.27
16595;BME280;8410;52.532;13.336;2023-05-09T01:55:56;101919.06;;;13.38;55.93
16595;BME280;8410;52.532;13.336;2023-05-09T01:58:24;101922.13;;;13.20;55.82
16595;BME280;8410;52.532;13.336;2023-05-09T02:00:53;101924.22;;;12.97;56.08
16595;BME280;8410;52.532;13.336;2023-05-09T02:03:22;101937.38;;;12.69;56.96
16595;BME280;8410;52.532;13.336;2023-05-09T02:05:51;101921.69;;;13.00;56.15
16595;BME280;8410;52.532;13.336;2023-05-09T02:08:21;101920.94;;;12.29;57.20
16595;BME280;8410;52.532;13.336;2023-05-09T02:10:49;101927.44;;;12.87;55.72
16595;BME280;8410;52.532;13.336;2023-05-09T02:13:16;101924.97;;;13.31;55.13
16595;BME280;8410;52.532;13.336;2023-05-09T02:15:44;101931.50;;;12.38;55.06
16595;BME280;8410;52.532;13.336;2023-05-09T02:18:12;101930.41;;;12.65;55.37
16595;BME280;8410;52.532;13.336;2023-05-09T02:20:41;101923.50;;;12.27;55.76
16595;BME280;8410;52.532;13.336;2023-05-09T02:23:09;101924.88;;;12.49;56.14
16595;BME280;8410;52.532;13.336;2023-05-09T02:25:37;101923.53;;;12.67;54.49
16595;BME280;8410;52.532;13.336;2023-05-09T02:28:06;101932.56;;;12.11;56.28
16595;BME280;8410;52.532;13.336;2023-05-09T02:30:37;101928.13;;;12.42;56.56
16595;BME280;8410;52.532;13.336;2023-05-09T02:33:07;101934.81;;;11.99;56.53
16595;BME280;8410;52.532;13.336;2023-05-09T02:35:38;101926.50;;;12.46;56.14
16595;BME280;8410;52.532;13.336;2023-05-09T02:38:09;101931.19;;;12.26;55.72
16595;BME280;8410;52.532;13.336;2023-05-09T02:40:38;101932.97;;;12.28;54.87
16595;BME280;8410;52.532;13.336;2023-05-09T02:43:05;101934.03;;;12.73;54.19
16595;BME280;8410;52.532;13.336;2023-05-09T02:45:33;101935.63;;;12.68;54.89
16595;BME280;8410;52.532;13.336;2023-05-09T02:48:00;101936.69;;;12.77;54.08
16595;BME280;8410;52.532;13.336;2023-05-09T02:50:28;101932.44;;;12.78;54.29
16595;BME280;8410;52.532;13.336;2023-05-09T02:52:55;101922.09;;;12.78;53.88
16595;BME280;8410;52.532;13.336;2023-05-09T02:55:24;101929.91;;;12.81;52.96
16595;BME280;8410;52.532;13.336;2023-05-09T02:57:52;101923.94;;;12.47;54.93
16595;BME280;8410;52.532;13.336;2023-05-09T03:00:34;101927.75;;;12.27;55.24
16595;BME280;8410;52.532;13.336;2023-05-09T03:03:02;101919.16;;;12.63;53.09
16595;BME280;8410;52.532;13.336;2023-05-09T03:05:29;101918.16;;;12.21;55.18
16595;BME280;8410;52.532;13.336;2023-05-09T03:07:57;101923.41;;;12.24;53.69
16595;BME280;8410;52.532;13.336;2023-05-09T03:10:26;101926.53;;;12.85;54.00
16595;BME280;8410;52.532;13.336;2023-05-09T03:12:53;101917.06;;;12.46;54.40
16595;BME280;8410;52.532;13.336;2023-05-09T03:15:21;101915.72;;;12.64;53.85
16595;BME280;8410;52.532;13.336;2023-05-09T03:17:48;101912.25;;;12.63;53.16
16595;BME280;8410;52.532;13.336;2023-05-09T03:20:16;101915.09;;;11.69;56.05
16595;BME280;8410;52.532;13.336;2023-05-09T03:22:43;101904.69;;;12.71;54.44
16595;BME280;8410;52.532;13.336;2023-05-09T03:25:10;101909.06;;;12.75;53.63
16595;BME280;8410;52.532;13.336;2023-05-09T03:27:40;101907.28;;;12.33;53.89
16595;BME280;8410;52.532;13.336;2023-05-09T03:30:08;101902.31;;;12.42;54.48
16595;BME280;8410;52.532;13.336;2023-05-09T03:32:35;101910.91;;;12.43;55.17
16595;BME280;8410;52.532;13.336;2023-05-09T03:35:03;101907.72;;;12.53;55.20
16595;BME280;8410;52.532;13.336;2023-05-09T03:37:31;101909.78;;;12.68;53.92
16595;BME280;8410;52.532;13.336;2023-05-09T03:39:58;101911.75;;;12.78;55.13
16595;BME280;8410;52.532;13.336;2023-05-09T03:42:26;101908.44;;;12.47;54.92
16595;BME280;8410;52.532;13.336;2023-05-09T03:44:54;101909.78;;;12.68;54.59
16595;BME280;8410;52.532;13.336;2023-05-09T03:47:22;101909.84;;;12.71;54.83
16595;BME280;8410;52.532;13.336;2023-05-09T03:49:49;101906.41;;;12.70;54.33
16595;BME280;8410;52.532;13.336;2023-05-09T03:52:18;101904.75;;;12.74;55.24
16595;BME280;8410;52.532;13.336;2023-05-09T03:54:46;101899.25;;;12.22;55.55
16595;BME280;8410;52.532;13.336;2023-05-09T03:57:13;101898.03;;;12.80;54.68
16595;BME280;8410;52.532;13.336;2023-05-09T03:59:41;101896.50;;;12.90;54.24
16595;BME280;8410;52.532;13.336;2023-05-09T04:02:10;101891.97;;;13.21;53.79
16595;BME280;8410;52.532;13.336;2023-05-09T04:04:37;101895.00;;;13.42;54.29
16595;BME280;8410;52.532;13.336;2023-05-09T04:07:05;101892.97;;;13.72;53.00
16595;BME280;8410;52.532;13.336;2023-05-09T04:09:33;101904.50;;;12.62;54.84
16595;BME280;8410;52.532;13.336;2023-05-09T04:12:00;101896.81;;;13.06;54.88
16595;BME280;8410;52.532;13.336;2023-05-09T04:14:27;101892.69;;;13.14;54.74
16595;BME280;8410;52.532;13.336;2023-05-09T04:16:55;101898.16;;;13.28;53.40
16595;BME280;8410;52.532;13.336;2023-05-09T04:19:24;101885.97;;;13.66;52.47
16595;BME280;8410;52.532;13.336;2023-05-09T04:21:51;101886.41;;;13.90;52.98
16595;BME280;8410;52.532;13.336;2023-05-09T04:24:19;101901.25;;;12.72;54.86
16595;BME280;8410;52.532;13.336;2023-05-09T04:26:46;101898.25;;;12.91;54.92
16595;BME280;8410;52.532;13.336;2023-05-09T04:29:14;101897.00;;;13.15;54.68
16595;BME280;8410;52.532;13.336;2023-05-09T04:31:41;101901.59;;;12.87;54.95
16595;BME280;8410;52.532;13.336;2023-05-09T04:34:09;101903.16;;;12.41;56.36
16595;BME280;8410;52.532;13.336;2023-05-09T04:36:38;101897.00;;;13.15;54.14
16595;BME280;8410;52.532;13.336;2023-05-09T04:39:05;101901.03;;;13.00;55.09
16595;BME280;8410;52.532;13.336;2023-05-09T04:41:33;101903.16;;;12.79;56.24
16595;BME280;8410;52.532;13.336;2023-05-09T04:44:01;101906.28;;;13.44;53.85
16595;BME280;8410;52.532;13.336;2023-05-09T04:46:29;101888.22;;;13.48;54.31
16595;BME280;8410;52.532;13.336;2023-05-09T04:48:57;101900.13;;;13.41;54.32
16595;BME280;8410;52.532;13.336;2023-05-09T04:51:24;101893.94;;;13.31;53.64
16595;BME280;8410;52.532;13.336;2023-05-09T04:53:53;101883.91;;;13.50;54.35
16595;BME280;8410;52.532;13.336;2023-05-09T04:56:21;101892.78;;;13.18;54.77
16595;BME280;8410;52.532;13.336;2023-05-09T04:58:48;101896.06;;;13.11;54.67
16595;BME280;8410;52.532;13.336;2023-05-09T05:01:16;101889.91;;;13.47;54.07
16595;BME280;8410;52.532;13.336;2023-05-09T05:03:44;101886.84;;;13.24;54.65
16595;BME280;8410;52.532;13.336;2023-05-09T05:06:12;101882.41;;;13.61;53.57
16595;BME280;8410;52.532;13.336;2023-05-09T05:08:39;101883.91;;;13.06;53.88
16595;BME280;8410;52.532;13.336;2023-05-09T05:11:08;101876.94;;;13.94;53.11
16595;BME280;8410;52.532;13.336;2023-05-09T05:13:36;101884.19;;;13.65;53.75
16595;BME280;8410;52.532;13.336;2023-05-09T05:16:03;101887.44;;;13.11;55.69
16595;BME280;8410;52.532;13.336;2023-05-09T05:18:31;101880.66;;;13.16;55.35
16595;BME280;8410;52.532;13.336;2023-05-09T05:20:58;101880.03;;;13.26;55.52
16595;BME280;8410;52.532;13.336;2023-05-09T05:23:26;101878.69;;;13.46;53.70
16595;BME280;8410;52.532;13.336;2023-05-09T05:25:53;101866.38;;;14.94;51.17
16595;BME280;8410;52.532;13.336;2023-05-09T05:28:22;101846.47;;;18.67;44.84
16595;BME280;8410;52.532;13.336;2023-05-09T05:30:49;101824.19;;;21.83;39.10
16595;BME280;8410;52.532;13.336;2023-05-09T05:33:17;101835.19;;;20.88;39.19
16595;BME280;8410;52.532;13.336;2023-05-09T05:35:44;101841.09;;;19.08;41.39
16595;BME280;8410;52.532;13.336;2023-05-09T05:38:12;101861.22;;;17.20;46.07
16595;BME280;8410;52.532;13.336;2023-05-09T05:40:40;101844.84;;;17.75;44.26
16595;BME280;8410;52.532;13.336;2023-05-09T05:43:07;101855.00;;;16.77;46.39
16595;BME280;8410;52.532;13.336;2023-05-09T05:45:36;101844.75;;;17.11;45.61
16595;BME280;8410;52.532;13.336;2023-05-09T05:48:04;101853.06;;;16.48;46.95
16595;BME280;8410;52.532;13.336;2023-05-09T05:50:32;101844.09;;;16.03;46.74
16595;BME280;8410;52.532;13.336;2023-05-09T05:52:59;101844.34;;;16.37;47.76
16595;BME280;8410;52.532;13.336;2023-05-09T05:55:27;101831.56;;;16.74;46.12
16595;BME280;8410;52.532;13.336;2023-05-09T05:57:54;101824.81;;;17.31;45.29
16595;BME280;8410;52.532;13.336;2023-05-09T06:00:22;101813.63;;;17.97;43.56
16595;BME280;8410;52.532;13.336;2023-05-09T06:02:50;101819.66;;;18.14;43.48
16595;BME280;8410;52.532;13.336;2023-05-09T06:05:18;101800.31;;;18.84;42.81
16595;BME280;8410;52.532;13.336;2023-05-09T06:07:46;101799.41;;;19.01;42.11
16595;BME280;8410;52.532;13.336;2023-05-09T06:10:13;101801.34;;;18.36;42.71
16595;BME280;8410;52.532;13.336;2023-05-09T06:12:42;101793.41;;;21.43;37.77
16595;BME280;8410;52.532;13.336;2023-05-09T06:15:10;101797.66;;;18.98;40.69
16595;BME280;8410;52.532;13.336;2023-05-09T06:17:38;101811.69;;;16.79;44.22
16595;BME280;8410;52.532;13.336;2023-05-09T06:20:08;101809.22;;;15.71;46.86
16595;BME280;8410;52.532;13.336;2023-05-09T06:22:35;101800.94;;;15.20;48.03
16595;BME280;8410;52.532;13.336;2023-05-09T06:25:03;101801.66;;;15.07;49.09
16595;BME280;8410;52.532;13.336;2023-05-09T06:27:34;101798.06;;;14.94;49.13
16595;BME280;8410;52.532;13.336;2023-05-09T06:30:02;101794.97;;;15.29;48.63
16595;BME280;8410;52.532;13.336;2023-05-09T06:32:49;101787.16;;;16.34;46.42
16595;BME280;8410;52.532;13.336;2023-05-09T06:35:18;101783.66;;;16.29;46.32
16595;BME280;8410;52.532;13.336;2023-05-09T06:37:46;101777.94;;;17.16;45.26
16595;BME280;8410;52.532;13.336;2023-05-09T06:40:14;101785.47;;;16.42;45.96
16595;BME280;8410;52.532;13.336;2023-05-09T06:42:42;101778.63;;;16.61;46.97
16595;BME280;8410;52.532;13.336;2023-05-09T06:45:10;101779.31;;;15.19;49.62
16595;BME280;8410;52.532;13.336;2023-05-09T06:47:38;101778.31;;;16.01;47.97
16595;BME280;8410;52.532;13.336;2023-05-09T06:50:07;101770.22;;;15.66;48.28
16595;BME280;8410;52.532;13.336;2023-05-09T06:52:36;101773.53;;;15.45;48.92
16595;BME280;8410;52.532;13.336;2023-05-09T06:55:04;101771.28;;;14.96;50.15
16595;BME280;8410;52.532;13.336;2023-05-09T06:57:32;101761.94;;;16.15;47.80
16595;BME280;8410;52.532;13.336;2023-05-09T06:59:59;101766.75;;;15.64;49.16
16595;BME280;8410;52.532;13.336;2023-05-09T07:02:26;101768.59;;;15.73;49.01
16595;BME280;8410;52.532;13.336;2023-05-09T07:04:54;101755.88;;;15.09;49.42
16595;BME280;8410;52.532;13.336;2023-05-09T07:07:22;101751.31;;;14.85;51.03
16595;BME280;8410;52.532;13.336;2023-05-09T07:09:50;101749.22;;;15.37;49.31
16595;BME280;8410;52.532;13.336;2023-05-09T07:12:26;101745.75;;;15.36;49.02
16595;BME280;8410;52.532;13.336;2023-05-09T07:14:53;101738.06;;;15.50;48.81
16595;BME280;8410;52.532;13.336;2023-05-09T07:17:20;101734.41;;;15.22;49.44
16595;BME280;8410;52.532;13.336;2023-05-09T07:19:50;101738.88;;;15.40;49.33
16595;BME280;8410;52.532;13.336;2023-05-09T07:22:17;101728.22;;;15.08;49.87
16595;BME280;8410;52.532;13.336;2023-05-09T07:24:45;101728.88;;;14.87;50.08
16595;BME280;8410;52.532;13.336;2023-05-09T07:27:14;101714.25;;;14.96;49.33
16595;BME280;8410;52.532;13.336;2023-05-09T07:29:41;101717.00;;;15.10;48.61
16595;BME280;8410;52.532;13.336;2023-05-09T07:32:08;101713.41;;;16.07;48.07
16595;BME280;8410;52.532;13.336;2023-05-09T07:34:36;101706.66;;;16.51;47.41
16595;BME280;8410;52.532;13.336;2023-05-09T07:37:03;101715.13;;;16.02;46.98
16595;BME280;8410;52.532;13.336;2023-05-09T07:39:31;101712.47;;;15.93;47.23
16595;BME280;8410;52.532;13.336;2023-05-09T07:41:58;101711.34;;;15.56;47.86
16595;BME280;8410;52.532;13.336;2023-05-09T07:44:27;101707.25;;;15.90;47.20
16595;BME280;8410;52.532;13.336;2023-05-09T07:46:55;101704.63;;;15.87;47.34
16595;BME280;8410;52.532;13.336;2023-05-09T07:49:24;101701.91;;;15.69;46.36
16595;BME280;8410;52.532;13.336;2023-05-09T07:51:52;101694.97;;;15.68;46.78
16595;BME280;8410;52.532;13.336;2023-05-09T07:54:19;101695.16;;;15.95;46.69
16595;BME280;8410;52.532;13.336;2023-05-09T07:56:46;101687.50;;;16.27;45.37
16595;BME280;8410;52.532;13.336;2023-05-09T07:59:14;101689.78;;;15.68;45.94
16595;BME280;8410;52.532;13.336;2023-05-09T08:01:43;101682.25;;;16.07;46.93
16595;BME280;8410;52.532;13.336;2023-05-09T08:04:11;101676.38;;;16.54;45.55
16595;BME280;8410;52.532;13.336;2023-05-09T08:06:39;101683.06;;;16.03;46.17
16595;BME280;8410;52.532;13.336;2023-05-09T08:09:06;101666.94;;;16.84;50.33
16595;BME280;8410;52.532;13.336;2023-05-09T08:11:34;101675.59;;;16.82;49.88
16595;BME280;8410;52.532;13.336;2023-05-09T08:14:02;101662.56;;;16.86;46.79
16595;BME280;8410;52.532;13.336;2023-05-09T08:16:29;101664.22;;;16.50;45.30
16595;BME280;8410;52.532;13.336;2023-05-09T08:18:58;101679.63;;;16.01;45.21
16595;BME280;8410;52.532;13.336;2023-05-09T08:21:26;101662.59;;;17.02;45.26
16595;BME280;8410;52.532;13.336;2023-05-09T08:23:53;101671.06;;;16.27;45.07
16595;BME280;8410;52.532;13.336;2023-05-09T08:26:21;101667.63;;;16.37;44.39
16595;BME280;8410;52.532;13.336;2023-05-09T08:28:48;101659.13;;;17.06;44.19
16595;BME280;8410;52.532;13.336;2023-05-09T08:31:16;101652.06;;;17.91;45.26
16595;BME280;8410;52.532;13.336;2023-05-09T08:33:43;101644.22;;;18.11;43.61
16595;BME280;8410;52.532;13.336;2023-05-09T08:36:12;101650.44;;;17.39;43.49
16595;BME280;8410;52.532;13.336;2023-05-09T08:38:40;101651.31;;;16.84;44.57
16595;BME280;8410;52.532;13.336;2023-05-09T08:41:07;101643.44;;;17.73;43.97
16595;BME280;8410;52.532;13.336;2023-05-09T08:43:35;101648.72;;;17.33;43.08
16595;BME280;8410;52.532;13.336;2023-05-09T08:46:06;101646.06;;;17.62;44.34
16595;BME280;8410;52.532;13.336;2023-05-09T08:48:34;101639.09;;;17.83;43.91
16595;BME280;8410;52.532;13.336;2023-05-09T08:51:03;101633.88;;;17.84;45.73
16595;BME280;8410;52.532;13.336;2023-05-09T08:53:33;101629.25;;;18.45;42.34
16595;BME280;8410;52.532;13.336;2023-05-09T08:56:02;101629.31;;;18.36;41.06
16595;BME280;8410;52.532;13.336;2023-05-09T08:58:30;101623.44;;;17.77;41.73
16595;BME280;8410;52.532;13.336;2023-05-09T09:00:58;101625.03;;;18.19;43.62
16595;BME280;8410;52.532;13.336;2023-05-09T09:03:26;101620.66;;;18.27;42.06
16595;BME280;8410;52.532;13.336;2023-05-09T09:05:54;101617.16;;;18.35;45.66
16595;BME280;8410;52.532;13.336;2023-05-09T09:08:22;101617.06;;;18.50;42.29
16595;BME280;8410;52.532;13.336;2023-05-09T09:10:52;101610.41;;;17.94;42.41
16595;BME280;8410;52.532;13.336;2023-05-09T09:13:23;101624.44;;;16.88;43.77
16595;BME280;8410;52.532;13.336;2023-05-09T09:15:52;101619.19;;;16.54;44.69
16595;BME280;8410;52.532;13.336;2023-05-09T09:18:22;101614.88;;;17.41;44.50
16595;BME280;8410;52.532;13.336;2023-05-09T09:20:55;101602.16;;;18.69;44.23
16595;BME280;8410;52.532;13.336;2023-05-09T09:23:24;101603.38;;;18.06;43.62
16595;BME280;8410;52.532;13.336;2023-05-09T09:25:58;101599.97;;;18.00;44.29
16595;BME280;8410;52.532;13.336;2023-05-09T09:28:26;101603.59;;;17.31;42.49
16595;BME280;8410;52.532;13.336;2023-05-09T09:30:54;101611.44;;;16.93;44.26
16595;BME280;8410;52.532;13.336;2023-05-09T09:33:22;101609.66;;;17.32;42.86
16595;BME280;8410;52.532;13.336;2023-05-09T09:35:52;101598.34;;;17.53;42.71
16595;BME280;8410;52.532;13.336;2023-05-09T09:38:21;101589.66;;;17.60;43.21
16595;BME280;8410;52.532;13.336;2023-05-09T09:40:52;101579.94;;;18.06;41.62
16595;BME280;8410;52.532;13.336;2023-05-09T09:43:26;101577.50;;;17.62;42.36
16595;BME280;8410;52.532;13.336;2023-05-09T09:45:53;101570.34;;;18.13;42.07
16595;BME280;8410;52.532;13.336;2023-05-09T09:48:23;101583.59;;;17.59;41.37
16595;BME280;8410;52.532;13.336;2023-05-09T09:50:52;101573.00;;;18.04;41.13
16595;BME280;8410;52.532;13.336;2023-05-09T09:53:20;101567.91;;;17.81;41.36
16595;BME280;8410;52.532;13.336;2023-05-09T09:55:49;101562.63;;;17.93;41.82
16595;BME280;8410;52.532;13.336;2023-05-09T09:58:18;101555.53;;;18.26;39.91
16595;BME280;8410;52.532;13.336;2023-05-09T10:01:03;101559.78;;;18.38;39.26
16595;BME280;8410;52.532;13.336;2023-05-09T10:03:35;101547.75;;;18.18;40.00
16595;BME280;8410;52.532;13.336;2023-05-09T10:06:04;101554.56;;;18.38;39.85
16595;BME280;8410;52.532;13.336;2023-05-09T10:08:31;101558.75;;;18.57;40.49
16595;BME280;8410;52.532;13.336;2023-05-09T10:10:59;101547.66;;;18.34;40.59
16595;BME280;8410;52.532;13.336;2023-05-09T10:13:27;101546.66;;;18.48;40.86
16595;BME280;8410;52.532;13.336;2023-05-09T10:15:56;101531.22;;;18.24;40.15
16595;BME280;8410;52.532;13.336;2023-05-09T10:18:27;101527.97;;;17.71;40.98
16595;BME280;8410;52.532;13.336;2023-05-09T10:20:58;101528.09;;;18.90;39.45
16595;BME280;8410;52.532;13.336;2023-05-09T10:23:29;101537.06;;;18.52;39.36
16595;BME280;8410;52.532;13.336;2023-05-09T10:26:04;101522.47;;;18.31;40.25
16595;BME280;8410;52.532;13.336;2023-05-09T10:28:34;101515.44;;;18.41;40.27
16595;BME280;8410;52.532;13.336;2023-05-09T10:31:11;101526.66;;;18.49;39.83
16595;BME280;8410;52.532;13.336;2023-05-09T10:33:45;101518.00;;;18.50;39.39
16595;BME280;8410;52.532;13.336;2023-05-09T10:36:15;101511.59;;;18.88;39.67
16595;BME280;8410;52.532;13.336;2023-05-09T10:38:43;101513.41;;;18.80;39.01
16595;BME280;8410;52.532;13.336;2023-05-09T10:41:13;101502.69;;;19.07;38.91
16595;BME280;8410;52.532;13.336;2023-05-09T10:43:42;101505.66;;;18.67;39.95
16595;BME280;8410;52.532;13.336;2023-05-09T10:46:12;101514.72;;;18.23;40.94
16595;BME280;8410;52.532;13.336;2023-05-09T10:48:40;101511.25;;;18.18;40.26
16595;BME280;8410;52.532;13.336;2023-05-09T10:51:09;101505.63;;;18.70;39.54
16595;BME280;8410;52.532;13.336;2023-05-09T10:53:41;101502.03;;;18.87;39.29
16595;BME280;8410;52.532;13.336;2023-05-09T10:56:21;101477.28;;;19.25;38.88
16595;BME280;8410;52.532;13.336;2023-05-09T10:58:49;101493.72;;;18.39;40.04
16595;BME280;8410;52.532;13.336;2023-05-09T11:01:29;101473.50;;;19.47;38.79
16595;BME280;8410;52.532;13.336;2023-05-09T11:03:58;101480.34;;;19.57;39.12
16595;BME280;8410;52.532;13.336;2023-05-09T11:06:43;101470.09;;;19.44;38.43
16595;BME280;8410;52.532;13.336;2023-05-09T11:09:24;101472.31;;;19.00;39.34
16595;BME280;8410;52.532;13.336;2023-05-09T11:11:55;101469.00;;;18.86;39.10
16595;BME280;8410;52.532;13.336;2023-05-09T11:14:30;101459.78;;;19.33;38.44
16595;BME280;8410;52.532;13.336;2023-05-09T11:17:01;101452.06;;;19.90;38.50
16595;BME280;8410;52.532;13.336;2023-05-09T11:19:36;101454.75;;;19.17;39.08
16595;BME280;8410;52.532;13.336;2023-05-09T11:22:12;101447.75;;;19.20;38.56
16595;BME280;8410;52.532;13.336;2023-05-09T11:24:43;101439.56;;;19.49;38.86
16595;BME280;8410;52.532;13.336;2023-05-09T11:27:16;101438.34;;;19.76;38.32
16595;BME280;8410;52.532;13.336;2023-05-09T11:29:49;101431.81;;;19.41;38.31
16595;BME280;8410;52.532;13.336;2023-05-09T11:32:21;101428.78;;;19.05;39.13
16595;BME280;8410;52.532;13.336;2023-05-09T11:35:04;101418.03;;;19.95;38.31
16595;BME280;8410;52.532;13.336;2023-05-09T11:37:32;101419.97;;;19.80;38.26
16595;BME280;8410;52.532;13.336;2023-05-09T11:40:01;101412.28;;;19.70;37.78
16595;BME280;8410;52.532;13.336;2023-05-09T11:42:30;101410.53;;;19.72;38.65
16595;BME280;8410;52.532;13.336;2023-05-09T11:44:58;101406.94;;;19.79;39.01
16595;BME280;8410;52.532;13.336;2023-05-09T11:47:27;101395.34;;;19.35;38.64
16595;BME280;8410;52.532;13.336;2023-05-09T11:49:56;101395.16;;;19.49;40.16
16595;BME280;8410;52.532;13.336;2023-05-09T11:52:23;101394.97;;;19.63;38.32
16595;BME280;8410;52.532;13.336;2023-05-09T11:54:51;101379.06;;;19.78;38.91
16595;BME280;8410;52.532;13.336;2023-05-09T11:57:18;101385.38;;;19.63;39.09
16595;BME280;8410;52.532;13.336;2023-05-09T11:59:47;101380.59;;;19.91;38.43
16595;BME280;8410;52.532;13.336;2023-05-09T12:02:14;101369.00;;;20.59;37.96
16595;BME280;8410;52.532;13.336;2023-05-09T12:04:43;101355.84;;;20.14;38.05
16595;BME280;8410;52.532;13.336;2023-05-09T12:07:11;101361.34;;;20.46;37.56
16595;BME280;8410;52.532;13.336;2023-05-09T12:09:38;101344.00;;;20.87;37.21
16595;BME280;8410;52.532;13.336;2023-05-09T12:12:09;101342.84;;;20.59;36.92
16595;BME280;8410;52.532;13.336;2023-05-09T12:14:38;101331.59;;;20.05;37.15
16595;BME280;8410;52.532;13.336;2023-05-09T12:17:06;101342.53;;;19.76;37.53
16595;BME280;8410;52.532;13.336;2023-05-09T12:19:33;101337.63;;;19.53;37.92
16595;BME280;8410;52.532;13.336;2023-05-09T12:22:03;101332.28;;;19.63;37.75
16595;BME280;8410;52.532;13.336;2023-05-09T12:24:34;101330.34;;;19.15;37.77
16595;BME280;8410;52.532;13.336;2023-05-09T12:27:02;101327.72;;;19.78;37.69
16595;BME280;8410;52.532;13.336;2023-05-09T12:29:30;101321.81;;;19.63;38.27
16595;BME280;8410;52.532;13.336;2023-05-09T12:31:58;101316.38;;;19.78;38.69
16595;BME280;8410;52.532;13.336;2023-05-09T12:34:26;101314.66;;;19.77;37.71
16595;BME280;8410;52.532;13.336;2023-05-09T12:36:54;101324.09;;;19.86;38.50
16595;BME280;8410;52.532;13.336;2023-05-09T12:39:25;101315.63;;;19.70;38.02
16595;BME280;8410;52.532;13.336;2023-05-09T12:41:52;101316.34;;;19.81;37.32
16595;BME280;8410;52.532;13.336;2023-05-09T12:44:27;101307.81;;;20.21;38.04
16595;BME280;8410;52.532;13.336;2023-05-09T12:46:56;101303.63;;;20.11;38.31
16595;BME280;8410;52.532;13.336;2023-05-09T12:49:24;101303.09;;;20.38;37.63
16595;BME280;8410;52.532;13.336;2023-05-09T12:51:54;101300.47;;;20.40;38.15
16595;BME280;8410;52.532;13.336;2023-05-09T12:54:23;101307.06;;;19.58;39.08
16595;BME280;8410;52.532;13.336;2023-05-09T12:56:53;101295.66;;;20.18;38.56
16595;BME280;8410;52.532;13.336;2023-05-09T12:59:23;101300.69;;;20.27;37.96